Terminal Aerodrome Forecast
Issued by NWS Grand Forks, ND

Home | Current Version | Previous Version | Graphics & Text | Print | Product List | Glossary On
Versions: 1 2 3 4 5 6 7 8 9 10 11 12 13 14 15 16 17 18
000
FTUS43 KFGF 101129
TAFGFK
TAF
KGFK 101129Z 1012/1112 34009KT P6SM BKN080
     FM102000 28004KT P6SM BKN080
     FM110000 19008KT 1 1/2SM -SN OVC040
     FM110600 23008KT P6SM BKN080
     FM110900 31015G25KT 3SM -SN BLSN OVC015=

USA.gov is the U.S. government's official web portal to all federal, state and local government web resources and services.